createdAt,value
2023-04-02T00:01:22.340Z,7.37
2023-04-02T00:03:49.096Z,7.36
2023-04-02T00:06:33.771Z,7.38
2023-04-02T00:09:02.954Z,7.37
2023-04-02T00:11:40.885Z,7.37
2023-04-02T00:14:33.999Z,7.34
2023-04-02T00:17:04.735Z,7.37
2023-04-02T00:19:31.141Z,7.35
2023-04-02T00:21:59.476Z,7.36
2023-04-02T00:24:26.068Z,7.34
2023-04-02T00:26:54.267Z,7.34
2023-04-02T00:29:21.299Z,7.33
2023-04-02T00:31:50.624Z,7.32
2023-04-02T00:34:32.607Z,7.31
2023-04-02T00:37:00.233Z,7.33
2023-04-02T00:39:34.670Z,7.36
2023-04-02T00:42:01.139Z,7.36
2023-04-02T00:44:28.469Z,7.35
2023-04-02T00:46:55.359Z,7.33
2023-04-02T00:49:29.960Z,7.33
2023-04-02T00:52:02.463Z,7.34
2023-04-02T00:54:32.728Z,7.33
2023-04-02T00:56:59.509Z,7.33
2023-04-02T00:59:33.781Z,7.35
2023-04-02T01:02:21.995Z,7.34
2023-04-02T01:05:21.040Z,7.36
2023-04-02T01:08:09.454Z,7.35
2023-04-02T01:10:48.053Z,7.37
2023-04-02T01:13:23.232Z,7.37
2023-04-02T01:16:02.869Z,7.35
2023-04-02T01:18:44.625Z,7.34
2023-04-02T01:21:38.773Z,7.35
2023-04-02T01:24:08.398Z,7.35
2023-04-02T01:26:52.562Z,7.33
2023-04-02T01:29:25.975Z,7.32
2023-04-02T01:31:55.316Z,7.33
2023-04-02T01:34:26.667Z,7.34
2023-04-02T01:37:04.904Z,7.34
2023-04-02T01:39:31.464Z,7.34
2023-04-02T01:42:21.676Z,7.33
2023-04-02T01:45:03.911Z,7.34
2023-04-02T01:47:32.455Z,7.34
2023-04-02T01:50:27.895Z,7.28
2023-04-02T01:52:57.137Z,7.19
2023-04-02T01:55:35.374Z,7.15
2023-04-02T01:58:03.153Z,7.20
2023-04-02T02:00:31.287Z,7.22
2023-04-02T02:03:01.043Z,7.26
2023-04-02T02:05:28.628Z,7.28
2023-04-02T02:07:57.144Z,7.30
2023-04-02T02:10:27.405Z,7.29
2023-04-02T02:12:54.228Z,7.28
2023-04-02T02:15:23.208Z,7.19
2023-04-02T02:17:55.365Z,7.22
2023-04-02T02:20:22.249Z,7.21
2023-04-02T02:22:51.164Z,7.24
2023-04-02T02:25:22.075Z,7.23
2023-04-02T02:28:07.071Z,7.22
2023-04-02T02:30:43.242Z,7.11
2023-04-02T02:33:45.916Z,7.09
2023-04-02T02:36:21.034Z,7.07
2023-04-02T02:39:02.567Z,7.08
2023-04-02T02:41:37.720Z,7.08
2023-04-02T02:44:10.579Z,7.09
2023-04-02T02:46:54.269Z,7.10
2023-04-02T02:49:27.011Z,7.10
2023-04-02T02:52:01.086Z,7.11
2023-04-02T02:54:30.981Z,7.10
2023-04-02T02:57:03.612Z,7.09
2023-04-02T02:59:31.396Z,7.07
2023-04-02T03:02:00.237Z,7.05
2023-04-02T03:04:27.352Z,7.08
2023-04-02T03:06:56.192Z,7.10
2023-04-02T03:09:33.875Z,7.10
2023-04-02T03:12:12.393Z,7.05
2023-04-02T03:14:46.487Z,6.99
2023-04-02T03:17:21.245Z,6.94
2023-04-02T03:19:54.903Z,6.94
2023-04-02T03:22:30.431Z,6.93
2023-04-02T03:25:15.007Z,6.91
2023-04-02T03:27:47.260Z,6.88
2023-04-02T03:30:41.041Z,6.91
2023-04-02T03:33:15.270Z,6.91
2023-04-02T03:35:47.682Z,6.89
2023-04-02T03:38:25.203Z,6.84
2023-04-02T03:41:05.170Z,6.82
2023-04-02T03:43:40.401Z,6.83
2023-04-02T03:46:34.207Z,6.81
2023-04-02T03:49:08.230Z,6.76
2023-04-02T03:51:43.425Z,6.72
2023-04-02T03:54:15.422Z,6.67
2023-04-02T03:56:45.798Z,6.58
2023-04-02T03:59:30.728Z,6.50
2023-04-02T04:02:06.433Z,6.53
2023-04-02T04:04:34.510Z,6.51
2023-04-02T04:07:01.686Z,6.54
2023-04-02T04:09:39.080Z,6.52
2023-04-02T04:12:10.979Z,6.46
2023-04-02T04:14:45.165Z,6.48
2023-04-02T04:17:26.869Z,6.47
2023-04-02T04:20:15.801Z,6.47
2023-04-02T04:22:42.304Z,6.50
2023-04-02T04:25:22.164Z,6.59
2023-04-02T04:28:07.854Z,6.62
2023-04-02T04:30:50.279Z,6.63
2023-04-02T04:33:25.419Z,6.65
2023-04-02T04:35:56.921Z,6.62
2023-04-02T04:38:31.714Z,6.63
2023-04-02T04:41:14.679Z,6.64
2023-04-02T04:43:52.641Z,6.63
2023-04-02T04:46:35.367Z,6.69
2023-04-02T04:49:22.581Z,6.67
2023-04-02T04:51:54.244Z,6.64
2023-04-02T04:54:20.732Z,6.57
2023-04-02T04:56:51.346Z,6.55
2023-04-02T04:59:44.868Z,6.59
2023-04-02T05:02:23.197Z,6.61
2023-04-02T05:04:52.279Z,6.62
2023-04-02T05:07:22.860Z,6.65
2023-04-02T05:10:06.863Z,6.68
2023-04-02T05:12:48.759Z,6.67
2023-04-02T05:15:33.710Z,6.64
2023-04-02T05:18:31.304Z,6.64
2023-04-02T05:21:22.552Z,6.62
2023-04-02T05:23:56.441Z,6.78
2023-04-02T05:26:32.278Z,6.78
2023-04-02T05:29:20.677Z,6.77
2023-04-02T05:32:00.397Z,6.82
2023-04-02T05:34:32.568Z,6.79
2023-04-02T05:36:59.313Z,6.80
2023-04-02T05:39:27.693Z,6.76
2023-04-02T05:42:05.501Z,6.82
2023-04-02T05:44:39.912Z,6.89
2023-04-02T05:47:14.108Z,6.88
2023-04-02T05:49:48.442Z,6.90
2023-04-02T05:52:25.026Z,7.00
2023-04-02T05:55:27.998Z,7.00
2023-04-02T05:58:29.655Z,7.03
2023-04-02T06:01:04.404Z,7.09
2023-04-02T06:03:33.842Z,7.19
2023-04-02T06:06:07.074Z,7.17
2023-04-02T06:08:42.530Z,7.18
2023-04-02T06:11:22.931Z,7.09
2023-04-02T06:13:49.549Z,7.12
2023-04-02T06:16:16.589Z,7.24
2023-04-02T06:18:44.348Z,7.27
2023-04-02T06:21:15.434Z,7.34
2023-04-02T06:23:48.746Z,7.42
2023-04-02T06:26:35.917Z,7.56
2023-04-02T06:29:06.321Z,7.61
2023-04-02T06:31:54.128Z,7.66
2023-04-02T06:34:23.416Z,7.76
2023-04-02T06:36:51.800Z,7.67
2023-04-02T06:39:22.049Z,7.68
2023-04-02T06:42:05.257Z,7.75
2023-04-02T06:44:35.446Z,7.78
2023-04-02T06:47:27.939Z,7.83
2023-04-02T06:50:16.363Z,7.87
2023-04-02T06:53:01.510Z,7.92
2023-04-02T06:55:52.418Z,7.90
2023-04-02T06:58:20.514Z,7.86
2023-04-02T07:00:49.970Z,7.91
2023-04-02T07:03:25.448Z,7.93
2023-04-02T07:05:52.140Z,7.90
2023-04-02T07:08:18.570Z,7.79
2023-04-02T07:10:45.363Z,7.85
2023-04-02T07:13:21.919Z,7.90
2023-04-02T07:15:53.786Z,8.00
2023-04-02T07:18:26.413Z,7.92
2023-04-02T07:20:54.091Z,7.94
2023-04-02T07:23:20.526Z,8.02
2023-04-02T07:25:52.992Z,7.94
2023-04-02T07:28:22.436Z,8.00
2023-04-02T07:30:50.055Z,8.02
2023-04-02T07:33:18.567Z,8.08
2023-04-02T07:35:45.657Z,8.00
2023-04-02T07:38:12.147Z,8.07
2023-04-02T07:40:38.915Z,8.15
2023-04-02T07:43:06.922Z,8.11
2023-04-02T07:45:33.683Z,7.99
2023-04-02T07:48:08.466Z,8.14
2023-04-02T07:50:35.266Z,8.05
2023-04-02T07:53:01.981Z,8.01
2023-04-02T07:55:28.814Z,8.16
2023-04-02T07:57:58.156Z,8.08
2023-04-02T08:00:26.715Z,8.21
2023-04-02T08:02:53.805Z,8.29
2023-04-02T08:05:20.394Z,8.30
2023-04-02T08:07:56.740Z,8.27
2023-04-02T08:10:23.900Z,8.38
2023-04-02T08:12:50.454Z,8.42
2023-04-02T08:15:17.172Z,8.44
2023-04-02T08:17:43.863Z,8.50
2023-04-02T08:20:18.243Z,8.53
2023-04-02T08:22:48.960Z,8.51
2023-04-02T08:25:15.903Z,8.60
2023-04-02T08:27:42.813Z,8.72
2023-04-02T08:30:12.393Z,8.86
2023-04-02T08:32:39.057Z,8.84
2023-04-02T08:35:05.965Z,8.86
2023-04-02T08:37:32.678Z,8.94
2023-04-02T08:39:59.335Z,8.94
2023-04-02T08:42:40.779Z,9.00
2023-04-02T08:45:44.511Z,8.96
2023-04-02T08:48:12.888Z,9.04
2023-04-02T08:50:42.473Z,9.24
2023-04-02T08:53:23.140Z,9.37
2023-04-02T08:56:09.889Z,9.52
2023-04-02T08:58:43.777Z,9.66
2023-04-02T09:01:27.606Z,9.54
2023-04-02T09:03:58.202Z,9.51
2023-04-02T09:06:25.502Z,9.45
2023-04-02T09:08:54.394Z,9.51
2023-04-02T09:11:42.340Z,9.64
2023-04-02T09:14:19.314Z,9.68
2023-04-02T09:16:55.657Z,9.83
2023-04-02T09:19:45.024Z,9.81
2023-04-02T09:22:20.890Z,9.77
2023-04-02T09:25:04.700Z,10.03
2023-04-02T09:27:35.008Z,10.16
2023-04-02T09:30:13.607Z,10.25
2023-04-02T09:33:00.846Z,10.05
2023-04-02T09:35:29.686Z,10.00
2023-04-02T09:38:31.853Z,10.26
2023-04-02T09:41:06.717Z,10.38
2023-04-02T09:43:37.592Z,10.71
2023-04-02T09:46:06.115Z,10.88
2023-04-02T09:48:35.938Z,11.07
2023-04-02T09:51:22.492Z,11.07
2023-04-02T09:54:04.243Z,11.24
2023-04-02T09:56:33.536Z,11.24
2023-04-02T09:59:03.319Z,11.20
2023-04-02T10:01:31.685Z,11.39
2023-04-02T10:03:58.850Z,10.93
2023-04-02T10:06:28.031Z,10.88
2023-04-02T10:08:54.629Z,10.77
2023-04-02T10:11:26.957Z,10.86
2023-04-02T10:14:00.595Z,10.81
2023-04-02T10:16:39.277Z,10.70
2023-04-02T10:19:44.362Z,10.62
2023-04-02T10:22:17.963Z,10.74
2023-04-02T10:24:45.315Z,10.54
2023-04-02T10:27:38.065Z,10.54
2023-04-02T10:30:31.432Z,10.50
2023-04-02T10:33:05.813Z,10.44
2023-04-02T10:36:24.222Z,10.72
2023-04-02T10:39:03.817Z,10.99
2023-04-02T10:41:37.589Z,11.27
2023-04-02T10:44:21.870Z,11.16
2023-04-02T10:47:31.152Z,11.22
2023-04-02T10:50:04.142Z,11.17
2023-04-02T10:52:41.204Z,11.33
2023-04-02T10:55:18.359Z,11.63
2023-04-02T10:57:48.303Z,11.76
2023-04-02T11:00:21.169Z,11.51
2023-04-02T11:02:57.068Z,11.94
2023-04-02T11:05:41.672Z,12.12
2023-04-02T11:08:50.590Z,12.25
2023-04-02T11:11:26.638Z,11.94
2023-04-02T11:14:17.986Z,12.02
2023-04-02T11:16:45.239Z,11.90
2023-04-02T11:19:14.771Z,11.68
2023-04-02T11:21:58.121Z,11.52
2023-04-02T11:24:47.758Z,11.22
2023-04-02T11:27:23.043Z,11.19
2023-04-02T11:29:55.905Z,11.01
2023-04-02T11:32:26.846Z,10.89
2023-04-02T11:35:03.420Z,10.87
2023-04-02T11:37:41.868Z,10.82
2023-04-02T11:40:12.085Z,10.88
2023-04-02T11:42:41.130Z,10.92
2023-04-02T11:45:24.318Z,10.83
2023-04-02T11:47:59.907Z,10.71
2023-04-02T11:50:38.474Z,10.80
2023-04-02T11:53:22.093Z,10.84
2023-04-02T11:55:57.505Z,10.74
2023-04-02T11:58:47.159Z,10.72
2023-04-02T12:01:16.817Z,10.59
2023-04-02T12:03:49.235Z,10.72
2023-04-02T12:06:46.344Z,10.76
2023-04-02T12:09:28.077Z,10.78
2023-04-02T12:12:00.769Z,10.91
2023-04-02T12:14:32.988Z,10.94
2023-04-02T12:17:01.253Z,11.02
2023-04-02T12:19:29.697Z,11.05
2023-04-02T12:21:58.233Z,11.13
2023-04-02T12:24:27.714Z,11.18
2023-04-02T12:27:18.677Z,11.24
2023-04-02T12:29:45.186Z,11.19
2023-04-02T12:32:27.758Z,11.13
2023-04-02T12:34:57.217Z,11.13
2023-04-02T12:37:26.886Z,10.95
2023-04-02T12:40:17.198Z,10.94
2023-04-02T12:42:43.852Z,10.95
2023-04-02T12:45:23.772Z,10.97
2023-04-02T12:47:50.255Z,10.96
2023-04-02T12:50:18.025Z,10.90
2023-04-02T12:52:46.262Z,10.97
2023-04-02T12:55:35.966Z,10.85
2023-04-02T12:58:02.424Z,10.75
2023-04-02T13:00:31.122Z,10.76
2023-04-02T13:03:19.525Z,10.79
2023-04-02T13:05:57.078Z,10.84
2023-04-02T13:08:28.018Z,10.94
2023-04-02T13:11:02.678Z,11.12
2023-04-02T13:13:40.539Z,11.18
2023-04-02T13:16:09.843Z,11.24
2023-04-02T13:18:37.915Z,11.38
2023-04-02T13:21:28.513Z,11.46
2023-04-02T13:23:55.211Z,11.39
2023-04-02T13:26:22.981Z,11.32
2023-04-02T13:28:56.145Z,11.40
2023-04-02T13:31:22.563Z,11.54
2023-04-02T13:33:49.012Z,11.50
2023-04-02T13:36:15.877Z,11.45
2023-04-02T13:38:42.818Z,11.56
2023-04-02T13:41:25.650Z,11.63
2023-04-02T13:43:54.174Z,11.48
2023-04-02T13:46:24.121Z,11.37
2023-04-02T13:48:51.631Z,11.22
2023-04-02T13:51:19.728Z,11.11
2023-04-02T13:53:50.513Z,11.07
2023-04-02T13:56:16.982Z,10.71
2023-04-02T13:58:44.272Z,10.60
2023-04-02T14:01:10.874Z,10.42
2023-04-02T14:03:37.945Z,10.29
2023-04-02T14:06:09.650Z,10.26
2023-04-02T14:08:53.394Z,10.20
2023-04-02T14:11:34.087Z,10.09
2023-04-02T14:14:11.007Z,10.14
2023-04-02T14:16:56.321Z,10.04
2023-04-02T14:19:48.523Z,10.17
2023-04-02T14:22:17.841Z,10.18
2023-04-02T14:24:55.458Z,10.05
2023-04-02T14:27:45.288Z,9.93
2023-04-02T14:30:40.102Z,9.91
2023-04-02T14:33:36.266Z,9.81
2023-04-02T14:36:15.143Z,9.70
2023-04-02T14:39:17.178Z,9.63
2023-04-02T14:41:58.711Z,9.63
2023-04-02T14:44:31.084Z,9.75
2023-04-02T14:47:11.242Z,9.82
2023-04-02T14:49:42.887Z,9.76
2023-04-02T14:52:14.980Z,9.91
2023-04-02T14:54:52.745Z,9.79
2023-04-02T14:57:30.216Z,9.83
2023-04-02T15:00:05.871Z,10.14
2023-04-02T15:02:55.805Z,9.94
2023-04-02T15:05:41.315Z,10.07
2023-04-02T15:08:13.744Z,9.97
2023-04-02T15:11:09.935Z,9.91
2023-04-02T15:13:55.141Z,9.59
2023-04-02T15:16:24.052Z,9.92
2023-04-02T15:18:57.463Z,9.87
2023-04-02T15:21:49.848Z,9.69
2023-04-02T15:24:53.511Z,9.70
2023-04-02T15:27:39.672Z,9.62
2023-04-02T15:30:13.315Z,9.75
2023-04-02T15:32:47.892Z,9.80
2023-04-02T15:35:45.307Z,9.73
2023-04-02T15:38:21.002Z,9.51
2023-04-02T15:41:20.601Z,9.67
2023-04-02T15:44:05.016Z,9.44
2023-04-02T15:46:53.314Z,9.23
2023-04-02T15:49:42.308Z,9.00
2023-04-02T15:52:34.603Z,9.13
2023-04-02T15:55:22.352Z,9.09
2023-04-02T15:58:26.298Z,9.12
2023-04-02T16:01:17.933Z,9.06
2023-04-02T16:04:19.544Z,9.10
2023-04-02T16:07:14.208Z,9.08
2023-04-02T16:09:58.098Z,8.88
2023-04-02T16:12:26.824Z,8.85
2023-04-02T16:14:59.354Z,8.95
2023-04-02T16:17:36.821Z,8.82
2023-04-02T16:20:24.434Z,8.67
2023-04-02T16:23:00.874Z,8.42
2023-04-02T16:25:32.643Z,8.66
2023-04-02T16:28:13.889Z,8.54
2023-04-02T16:30:57.979Z,8.77
2023-04-02T16:33:40.569Z,8.50
2023-04-02T16:36:26.127Z,8.30
2023-04-02T16:39:30.549Z,8.11
2023-04-02T16:42:12.109Z,8.23
2023-04-02T16:45:00.993Z,8.16
2023-04-02T16:47:43.996Z,8.17
2023-04-02T16:50:37.662Z,7.91
2023-04-02T16:53:22.989Z,7.83
2023-04-02T16:56:11.903Z,7.75
2023-04-02T16:59:17.339Z,7.85
2023-04-02T17:01:57.241Z,7.77
2023-04-02T17:04:42.554Z,7.77
2023-04-02T17:07:18.383Z,7.57
2023-04-02T17:09:53.907Z,7.61
2023-04-02T17:12:23.265Z,7.64
2023-04-02T17:14:59.610Z,7.81
2023-04-02T17:17:26.642Z,7.71
2023-04-02T17:19:58.925Z,7.70
2023-04-02T17:22:25.293Z,7.53
2023-04-02T17:25:01.085Z,7.60
2023-04-02T17:27:39.564Z,7.61
2023-04-02T17:30:12.212Z,7.60
2023-04-02T17:32:38.682Z,7.33
2023-04-02T17:35:38.309Z,7.30
2023-04-02T17:38:07.726Z,7.45
2023-04-02T17:40:48.880Z,7.23
2023-04-02T17:43:34.735Z,7.12
2023-04-02T17:46:35.368Z,6.97
2023-04-02T17:49:18.544Z,7.03
2023-04-02T17:51:54.240Z,7.04
2023-04-02T17:54:50.125Z,6.97
2023-04-02T17:57:42.856Z,7.00
2023-04-02T18:00:25.167Z,6.96
2023-04-02T18:03:06.982Z,6.78
2023-04-02T18:05:46.364Z,6.76
2023-04-02T18:08:50.917Z,6.83
2023-04-02T18:11:48.332Z,6.69
2023-04-02T18:14:51.689Z,6.71
2023-04-02T18:17:43.188Z,6.64
2023-04-02T18:20:25.796Z,6.63
2023-04-02T18:23:23.226Z,6.65
2023-04-02T18:26:15.756Z,6.52
2023-04-02T18:28:53.700Z,6.53
2023-04-02T18:31:38.258Z,6.48
2023-04-02T18:34:49.817Z,6.45
2023-04-02T18:37:28.922Z,6.62
2023-04-02T18:40:27.795Z,6.33
2023-04-02T18:43:18.787Z,6.27
2023-04-02T18:46:04.330Z,6.15
2023-04-02T18:48:41.000Z,6.13
2023-04-02T18:51:19.835Z,5.99
2023-04-02T18:53:47.408Z,5.98
2023-04-02T18:56:18.625Z,5.96
2023-04-02T18:58:47.924Z,5.86
2023-04-02T19:01:18.283Z,5.74
2023-04-02T19:03:54.849Z,5.75
2023-04-02T19:06:29.957Z,5.71
2023-04-02T19:09:01.262Z,5.63
2023-04-02T19:11:28.292Z,5.48
2023-04-02T19:14:04.508Z,5.44
2023-04-02T19:16:42.605Z,5.41
2023-04-02T19:19:16.951Z,5.48
2023-04-02T19:21:52.140Z,5.60
2023-04-02T19:25:09.413Z,5.33
2023-04-02T19:28:12.111Z,5.34
2023-04-02T19:30:58.690Z,5.30
2023-04-02T19:34:10.377Z,5.21
2023-04-02T19:36:56.728Z,4.89
2023-04-02T19:39:43.900Z,4.82
2023-04-02T19:42:44.713Z,4.72
2023-04-02T19:45:34.167Z,4.79
2023-04-02T19:48:09.602Z,4.69
2023-04-02T19:50:37.252Z,4.78
2023-04-02T19:53:03.992Z,4.65
2023-04-02T19:55:30.730Z,4.55
2023-04-02T19:58:08.443Z,4.59
2023-04-02T20:00:44.853Z,4.59
2023-04-02T20:03:11.333Z,4.65
2023-04-02T20:05:38.344Z,4.62
2023-04-02T20:08:05.090Z,4.65
2023-04-02T20:10:31.537Z,4.63
2023-04-02T20:12:57.975Z,4.68
2023-04-02T20:15:24.850Z,4.45
2023-04-02T20:17:51.261Z,4.45
2023-04-02T20:20:17.810Z,4.57
2023-04-02T20:22:44.263Z,4.56
2023-04-02T20:25:10.709Z,4.61
2023-04-02T20:27:37.452Z,4.49
2023-04-02T20:30:05.083Z,4.45
2023-04-02T20:32:31.770Z,4.46
2023-04-02T20:34:58.379Z,4.38
2023-04-02T20:37:24.901Z,4.34
2023-04-02T20:39:51.364Z,4.28
2023-04-02T20:42:17.957Z,4.23
2023-04-02T20:44:44.636Z,4.30
2023-04-02T20:47:11.091Z,4.22
2023-04-02T20:49:37.641Z,4.28
2023-04-02T20:52:04.389Z,4.35
2023-04-02T20:54:31.173Z,4.24
2023-04-02T20:56:57.706Z,4.35
2023-04-02T20:59:24.120Z,4.30
2023-04-02T21:01:50.716Z,4.26
2023-04-02T21:04:17.415Z,4.27
2023-04-02T21:06:44.015Z,4.14
2023-04-02T21:09:15.389Z,4.09
2023-04-02T21:11:42.280Z,4.16
2023-04-02T21:14:09.049Z,4.15
2023-04-02T21:16:35.805Z,4.11
2023-04-02T21:19:05.894Z,4.19
2023-04-02T21:21:33.203Z,4.52
2023-04-02T21:24:01.766Z,4.30
2023-04-02T21:26:31.307Z,4.24
2023-04-02T21:28:59.076Z,4.22
2023-04-02T21:31:28.493Z,4.13
2023-04-02T21:33:57.379Z,4.09
2023-04-02T21:36:27.276Z,4.00
2023-04-02T21:38:56.592Z,4.09
2023-04-02T21:41:35.934Z,4.01
2023-04-02T21:44:04.644Z,4.12
2023-04-02T21:46:35.602Z,4.07
2023-04-02T21:49:02.549Z,4.07
2023-04-02T21:51:35.251Z,4.15
2023-04-02T21:54:02.591Z,3.90
2023-04-02T21:56:31.510Z,3.98
2023-04-02T21:58:59.273Z,3.94
2023-04-02T22:01:28.044Z,3.95
2023-04-02T22:03:56.196Z,3.91
2023-04-02T22:06:24.123Z,3.90
2023-04-02T22:08:56.236Z,3.83
2023-04-02T22:11:29.198Z,3.90
2023-04-02T22:13:56.040Z,3.97
2023-04-02T22:16:25.140Z,3.91
2023-04-02T22:18:53.410Z,3.92
2023-04-02T22:21:20.459Z,3.89
2023-04-02T22:23:48.019Z,3.96
2023-04-02T22:26:17.044Z,3.89
2023-04-02T22:28:43.930Z,3.87
2023-04-02T22:31:16.402Z,3.96
2023-04-02T22:33:44.466Z,3.90
2023-04-02T22:36:11.967Z,3.88
2023-04-02T22:38:38.871Z,3.81
2023-04-02T22:41:07.094Z,3.85
2023-04-02T22:43:34.767Z,3.77
2023-04-02T22:46:02.023Z,3.86
2023-04-02T22:48:28.502Z,3.75
2023-04-02T22:50:55.256Z,3.74
2023-04-02T22:53:22.288Z,3.66
2023-04-02T22:55:49.140Z,3.63
2023-04-02T22:58:15.721Z,3.53
2023-04-02T23:00:42.312Z,3.55
2023-04-02T23:03:08.890Z,3.64
2023-04-02T23:05:35.282Z,3.66
2023-04-02T23:08:01.679Z,3.63
2023-04-02T23:10:33.387Z,3.63
2023-04-02T23:12:59.915Z,3.47
2023-04-02T23:15:26.328Z,3.49
2023-04-02T23:17:53.157Z,3.56
2023-04-02T23:20:19.788Z,3.50
2023-04-02T23:22:46.258Z,3.58
2023-04-02T23:25:12.749Z,3.53
2023-04-02T23:27:39.607Z,3.38
2023-04-02T23:30:07.933Z,3.30
2023-04-02T23:32:34.531Z,3.35
2023-04-02T23:35:01.225Z,3.31
2023-04-02T23:37:27.622Z,3.21
2023-04-02T23:39:54.365Z,3.29
2023-04-02T23:42:20.773Z,3.19
2023-04-02T23:44:47.233Z,3.23
2023-04-02T23:47:13.677Z,3.26
2023-04-02T23:49:40.085Z,3.18
2023-04-02T23:52:06.785Z,3.25
2023-04-02T23:54:33.522Z,3.21
2023-04-02T23:57:00.258Z,3.17
2023-04-02T23:59:26.642Z,3.15
